sensor_id;sensor_type;location;lat;lon;timestamp;temperature;humidity
7399;DHT22;3740;50.700;7.184;2023-07-16T00:00:26;21.70;99.90
7399;DHT22;3740;50.700;7.184;2023-07-16T00:02:51;21.70;99.90
7399;DHT22;3740;50.700;7.184;2023-07-16T00:05:17;21.60;99.90
7399;DHT22;3740;50.700;7.184;2023-07-16T00:07:42;21.50;99.90
7399;DHT22;3740;50.700;7.184;2023-07-16T00:10:08;21.50;99.90
7399;DHT22;3740;50.700;7.184;2023-07-16T00:12:34;21.40;99.90
7399;DHT22;3740;50.700;7.184;2023-07-16T00:15:00;21.40;99.90
7399;DHT22;3740;50.700;7.184;2023-07-16T00:17:25;21.40;99.90
7399;DHT22;3740;50.700;7.184;2023-07-16T00:19:51;21.30;99.90
7399;DHT22;3740;50.700;7.184;2023-07-16T00:22:16;21.40;99.90
7399;DHT22;3740;50.700;7.184;2023-07-16T00:24:42;21.30;99.90
7399;DHT22;3740;50.700;7.184;2023-07-16T00:27:07;21.30;99.90
7399;DHT22;3740;50.700;7.184;2023-07-16T00:29:33;21.20;99.90
7399;DHT22;3740;50.700;7.184;2023-07-16T00:31:58;21.20;99.90
7399;DHT22;3740;50.700;7.184;2023-07-16T00:34:24;21.20;99.90
7399;DHT22;3740;50.700;7.184;2023-07-16T00:36:50;21.10;99.90
7399;DHT22;3740;50.700;7.184;2023-07-16T00:39:15;21.10;99.90
7399;DHT22;3740;50.700;7.184;2023-07-16T00:41:41;21.10;99.90
7399;DHT22;3740;50.700;7.184;2023-07-16T00:44:06;21.00;99.90
7399;DHT22;3740;50.700;7.184;2023-07-16T00:46:32;21.00;99.90
7399;DHT22;3740;50.700;7.184;2023-07-16T00:48:57;21.00;99.90
7399;DHT22;3740;50.700;7.184;2023-07-16T00:51:24;21.00;99.90
7399;DHT22;3740;50.700;7.184;2023-07-16T00:53:50;21.00;99.90
7399;DHT22;3740;50.700;7.184;2023-07-16T00:56:17;20.90;99.90
7399;DHT22;3740;50.700;7.184;2023-07-16T00:58:43;20.90;99.90
7399;DHT22;3740;50.700;7.184;2023-07-16T01:01:09;20.80;99.90
7399;DHT22;3740;50.700;7.184;2023-07-16T01:03:34;20.80;99.90
7399;DHT22;3740;50.700;7.184;2023-07-16T01:06:22;20.80;99.90
7399;DHT22;3740;50.700;7.184;2023-07-16T01:11:21;20.70;99.90
7399;DHT22;3740;50.700;7.184;2023-07-16T01:13:47;20.80;99.90
7399;DHT22;3740;50.700;7.184;2023-07-16T01:16:20;20.80;99.90
7399;DHT22;3740;50.700;7.184;2023-07-16T01:18:46;20.70;99.90
7399;DHT22;3740;50.700;7.184;2023-07-16T01:21:12;20.70;99.90
7399;DHT22;3740;50.700;7.184;2023-07-16T01:23:56;20.70;99.90
7399;DHT22;3740;50.700;7.184;2023-07-16T01:29:31;20.60;99.90
7399;DHT22;3740;50.700;7.184;2023-07-16T01:32:02;20.60;99.90
7399;DHT22;3740;50.700;7.184;2023-07-16T01:34:32;20.60;99.90
7399;DHT22;3740;50.700;7.184;2023-07-16T01:37:00;20.60;99.90
7399;DHT22;3740;50.700;7.184;2023-07-16T01:39:26;20.60;99.90
7399;DHT22;3740;50.700;7.184;2023-07-16T01:41:52;20.50;99.90
7399;DHT22;3740;50.700;7.184;2023-07-16T01:44:18;20.50;99.90
7399;DHT22;3740;50.700;7.184;2023-07-16T01:46:44;20.50;99.90
7399;DHT22;3740;50.700;7.184;2023-07-16T01:49:09;20.50;99.90
7399;DHT22;3740;50.700;7.184;2023-07-16T01:51:35;20.40;99.90
7399;DHT22;3740;50.700;7.184;2023-07-16T01:54:00;20.40;99.90
7399;DHT22;3740;50.700;7.184;2023-07-16T01:56:26;20.40;99.90
7399;DHT22;3740;50.700;7.184;2023-07-16T01:58:51;20.40;99.90
7399;DHT22;3740;50.700;7.184;2023-07-16T02:01:17;20.40;99.90
7399;DHT22;3740;50.700;7.184;2023-07-16T02:03:43;20.40;99.90
7399;DHT22;3740;50.700;7.184;2023-07-16T02:06:08;20.30;99.90
7399;DHT22;3740;50.700;7.184;2023-07-16T02:08:34;20.30;99.90
7399;DHT22;3740;50.700;7.184;2023-07-16T02:10:59;20.30;99.90
7399;DHT22;3740;50.700;7.184;2023-07-16T02:13:27;20.30;99.90
7399;DHT22;3740;50.700;7.184;2023-07-16T02:15:52;20.20;99.90
7399;DHT22;3740;50.700;7.184;2023-07-16T02:18:18;20.20;99.90
7399;DHT22;3740;50.700;7.184;2023-07-16T02:20:44;20.20;99.90
7399;DHT22;3740;50.700;7.184;2023-07-16T02:23:09;20.10;99.90
7399;DHT22;3740;50.700;7.184;2023-07-16T02:25:35;20.10;99.90
7399;DHT22;3740;50.700;7.184;2023-07-16T02:28:00;20.10;99.90
7399;DHT22;3740;50.700;7.184;2023-07-16T02:30:27;20.10;99.90
7399;DHT22;3740;50.700;7.184;2023-07-16T02:32:52;20.10;99.90
7399;DHT22;3740;50.700;7.184;2023-07-16T02:35:18;20.10;99.90
7399;DHT22;3740;50.700;7.184;2023-07-16T02:37:43;20.00;99.90
7399;DHT22;3740;50.700;7.184;2023-07-16T02:40:09;20.00;99.90
7399;DHT22;3740;50.700;7.184;2023-07-16T02:42:35;20.00;99.90
7399;DHT22;3740;50.700;7.184;2023-07-16T02:45:00;20.00;99.90
7399;DHT22;3740;50.700;7.184;2023-07-16T02:47:26;19.90;99.90
7399;DHT22;3740;50.700;7.184;2023-07-16T02:49:52;19.90;99.90
7399;DHT22;3740;50.700;7.184;2023-07-16T02:52:17;19.90;99.90
7399;DHT22;3740;50.700;7.184;2023-07-16T02:54:43;19.90;99.90
7399;DHT22;3740;50.700;7.184;2023-07-16T02:57:09;19.80;99.90
7399;DHT22;3740;50.700;7.184;2023-07-16T02:59:34;19.80;99.90
7399;DHT22;3740;50.700;7.184;2023-07-16T03:02:00;19.80;99.90
7399;DHT22;3740;50.700;7.184;2023-07-16T03:04:25;19.80;99.90
7399;DHT22;3740;50.700;7.184;2023-07-16T03:06:51;19.80;99.90
7399;DHT22;3740;50.700;7.184;2023-07-16T03:09:17;19.70;99.90
7399;DHT22;3740;50.700;7.184;2023-07-16T03:11:42;19.70;99.90
7399;DHT22;3740;50.700;7.184;2023-07-16T03:14:08;19.60;99.90
7399;DHT22;3740;50.700;7.184;2023-07-16T03:16:33;19.60;99.90
7399;DHT22;3740;50.700;7.184;2023-07-16T03:18:59;19.70;99.90
7399;DHT22;3740;50.700;7.184;2023-07-16T03:21:24;19.60;99.90
7399;DHT22;3740;50.700;7.184;2023-07-16T03:23:50;19.60;99.90
7399;DHT22;3740;50.700;7.184;2023-07-16T03:26:15;19.60;99.90
7399;DHT22;3740;50.700;7.184;2023-07-16T03:28:41;19.50;99.90
7399;DHT22;3740;50.700;7.184;2023-07-16T03:31:07;19.50;99.90
7399;DHT22;3740;50.700;7.184;2023-07-16T03:33:32;19.50;99.90
7399;DHT22;3740;50.700;7.184;2023-07-16T03:35:58;19.50;99.90
7399;DHT22;3740;50.700;7.184;2023-07-16T03:38:23;19.50;99.90
7399;DHT22;3740;50.700;7.184;2023-07-16T03:40:49;19.40;99.90
7399;DHT22;3740;50.700;7.184;2023-07-16T03:43:16;19.40;99.90
7399;DHT22;3740;50.700;7.184;2023-07-16T03:45:42;19.40;99.90
7399;DHT22;3740;50.700;7.184;2023-07-16T03:48:07;19.40;99.90
7399;DHT22;3740;50.700;7.184;2023-07-16T03:50:34;19.40;99.90
7399;DHT22;3740;50.700;7.184;2023-07-16T03:53:00;19.40;99.90
7399;DHT22;3740;50.700;7.184;2023-07-16T03:55:25;19.40;99.90
7399;DHT22;3740;50.700;7.184;2023-07-16T03:57:51;19.40;99.90
7399;DHT22;3740;50.700;7.184;2023-07-16T04:00:17;19.40;99.90
7399;DHT22;3740;50.700;7.184;2023-07-16T04:02:43;19.40;99.90
7399;DHT22;3740;50.700;7.184;2023-07-16T04:05:08;19.40;99.90
7399;DHT22;3740;50.700;7.184;2023-07-16T04:07:34;19.30;99.90
7399;DHT22;3740;50.700;7.184;2023-07-16T04:09:59;19.30;99.90
7399;DHT22;3740;50.700;7.184;2023-07-16T04:12:25;19.40;99.90
7399;DHT22;3740;50.700;7.184;2023-07-16T04:14:57;19.40;99.90
7399;DHT22;3740;50.700;7.184;2023-07-16T04:17:23;19.30;99.90
7399;DHT22;3740;50.700;7.184;2023-07-16T04:19:49;19.40;99.90
7399;DHT22;3740;50.700;7.184;2023-07-16T04:22:14;19.30;99.90
7399;DHT22;3740;50.700;7.184;2023-07-16T04:24:40;19.30;99.90
7399;DHT22;3740;50.700;7.184;2023-07-16T04:27:06;19.30;99.90
7399;DHT22;3740;50.700;7.184;2023-07-16T04:29:31;19.20;99.90
7399;DHT22;3740;50.700;7.184;2023-07-16T04:31:57;19.30;99.90
7399;DHT22;3740;50.700;7.184;2023-07-16T04:34:22;19.30;99.90
7399;DHT22;3740;50.700;7.184;2023-07-16T04:36:48;19.20;99.90
7399;DHT22;3740;50.700;7.184;2023-07-16T04:39:13;19.20;99.90
7399;DHT22;3740;50.700;7.184;2023-07-16T04:41:39;19.30;99.90
7399;DHT22;3740;50.700;7.184;2023-07-16T04:44:05;19.20;99.90
7399;DHT22;3740;50.700;7.184;2023-07-16T04:46:31;19.20;99.90
7399;DHT22;3740;50.700;7.184;2023-07-16T04:48:56;19.20;99.90
7399;DHT22;3740;50.700;7.184;2023-07-16T04:51:22;19.20;99.90
7399;DHT22;3740;50.700;7.184;2023-07-16T04:53:48;19.30;99.90
7399;DHT22;3740;50.700;7.184;2023-07-16T04:56:15;19.20;99.90
7399;DHT22;3740;50.700;7.184;2023-07-16T04:58:41;19.20;99.90
7399;DHT22;3740;50.700;7.184;2023-07-16T05:01:08;19.20;99.90
7399;DHT22;3740;50.700;7.184;2023-07-16T05:03:33;19.20;99.90
7399;DHT22;3740;50.700;7.184;2023-07-16T05:05:59;19.20;99.90
7399;DHT22;3740;50.700;7.184;2023-07-16T05:08:24;19.20;99.90
7399;DHT22;3740;50.700;7.184;2023-07-16T05:10:50;19.20;99.90
7399;DHT22;3740;50.700;7.184;2023-07-16T05:13:15;19.30;99.90
7399;DHT22;3740;50.700;7.184;2023-07-16T05:15:43;19.20;99.90
7399;DHT22;3740;50.700;7.184;2023-07-16T05:18:09;19.30;99.90
7399;DHT22;3740;50.700;7.184;2023-07-16T05:20:35;19.30;99.90
7399;DHT22;3740;50.700;7.184;2023-07-16T05:23:01;19.30;99.90
7399;DHT22;3740;50.700;7.184;2023-07-16T05:25:26;19.30;99.90
7399;DHT22;3740;50.700;7.184;2023-07-16T05:27:52;19.40;99.90
7399;DHT22;3740;50.700;7.184;2023-07-16T05:30:18;19.40;99.90
7399;DHT22;3740;50.700;7.184;2023-07-16T05:32:43;19.40;99.90
7399;DHT22;3740;50.700;7.184;2023-07-16T05:35:09;19.30;99.90
7399;DHT22;3740;50.700;7.184;2023-07-16T05:37:35;19.40;99.90
7399;DHT22;3740;50.700;7.184;2023-07-16T05:40:00;19.40;99.90
7399;DHT22;3740;50.700;7.184;2023-07-16T05:42:26;19.40;99.90
7399;DHT22;3740;50.700;7.184;2023-07-16T05:44:51;19.40;99.90
7399;DHT22;3740;50.700;7.184;2023-07-16T05:47:17;19.40;99.90
7399;DHT22;3740;50.700;7.184;2023-07-16T05:49:43;19.40;99.90
7399;DHT22;3740;50.700;7.184;2023-07-16T05:52:08;19.40;99.90
7399;DHT22;3740;50.700;7.184;2023-07-16T05:54:34;19.40;99.90
7399;DHT22;3740;50.700;7.184;2023-07-16T05:57:00;19.40;99.90
7399;DHT22;3740;50.700;7.184;2023-07-16T05:59:26;19.40;99.90
7399;DHT22;3740;50.700;7.184;2023-07-16T06:01:51;19.40;99.90
7399;DHT22;3740;50.700;7.184;2023-07-16T06:04:17;19.40;99.90
7399;DHT22;3740;50.700;7.184;2023-07-16T06:06:42;19.50;99.90
7399;DHT22;3740;50.700;7.184;2023-07-16T06:09:08;19.40;99.90
7399;DHT22;3740;50.700;7.184;2023-07-16T06:11:34;19.40;99.90
7399;DHT22;3740;50.700;7.184;2023-07-16T06:13:59;19.40;99.90
7399;DHT22;3740;50.700;7.184;2023-07-16T06:16:25;19.40;99.90
7399;DHT22;3740;50.700;7.184;2023-07-16T06:18:51;19.50;99.90
7399;DHT22;3740;50.700;7.184;2023-07-16T06:21:16;19.50;99.90
7399;DHT22;3740;50.700;7.184;2023-07-16T06:23:42;19.60;99.90
7399;DHT22;3740;50.700;7.184;2023-07-16T06:26:08;19.60;99.90
7399;DHT22;3740;50.700;7.184;2023-07-16T06:28:33;19.60;99.90
7399;DHT22;3740;50.700;7.184;2023-07-16T06:30:59;19.50;99.90
7399;DHT22;3740;50.700;7.184;2023-07-16T06:33:24;19.60;99.90
7399;DHT22;3740;50.700;7.184;2023-07-16T06:35:52;19.60;99.90
7399;DHT22;3740;50.700;7.184;2023-07-16T06:38:18;19.60;99.90
7399;DHT22;3740;50.700;7.184;2023-07-16T06:40:48;19.60;99.90
7399;DHT22;3740;50.700;7.184;2023-07-16T06:43:14;19.60;99.90
7399;DHT22;3740;50.700;7.184;2023-07-16T06:45:39;19.60;99.90
7399;DHT22;3740;50.700;7.184;2023-07-16T06:48:05;19.70;99.90
7399;DHT22;3740;50.700;7.184;2023-07-16T06:50:30;19.60;99.90
7399;DHT22;3740;50.700;7.184;2023-07-16T06:52:56;19.70;99.90
7399;DHT22;3740;50.700;7.184;2023-07-16T06:55:22;19.70;99.90
7399;DHT22;3740;50.700;7.184;2023-07-16T06:57:47;19.70;99.90
7399;DHT22;3740;50.700;7.184;2023-07-16T07:00:13;19.70;99.90
7399;DHT22;3740;50.700;7.184;2023-07-16T07:02:38;19.80;99.90
7399;DHT22;3740;50.700;7.184;2023-07-16T07:05:04;19.80;99.90
7399;DHT22;3740;50.700;7.184;2023-07-16T07:07:30;19.80;99.90
7399;DHT22;3740;50.700;7.184;2023-07-16T07:09:55;19.80;99.90
7399;DHT22;3740;50.700;7.184;2023-07-16T07:12:21;19.80;99.90
7399;DHT22;3740;50.700;7.184;2023-07-16T07:14:47;19.80;99.90
7399;DHT22;3740;50.700;7.184;2023-07-16T07:17:13;19.90;99.90
7399;DHT22;3740;50.700;7.184;2023-07-16T07:19:39;19.90;99.90
7399;DHT22;3740;50.700;7.184;2023-07-16T07:22:04;20.00;99.90
7399;DHT22;3740;50.700;7.184;2023-07-16T07:24:30;20.00;99.90
7399;DHT22;3740;50.700;7.184;2023-07-16T07:26:55;20.00;99.90
7399;DHT22;3740;50.700;7.184;2023-07-16T07:29:21;20.00;99.90
7399;DHT22;3740;50.700;7.184;2023-07-16T07:31:47;20.00;99.90
7399;DHT22;3740;50.700;7.184;2023-07-16T07:34:12;20.00;99.90
7399;DHT22;3740;50.700;7.184;2023-07-16T07:36:38;20.00;99.90
7399;DHT22;3740;50.700;7.184;2023-07-16T07:39:03;20.00;99.90
7399;DHT22;3740;50.700;7.184;2023-07-16T07:41:29;20.00;99.90
7399;DHT22;3740;50.700;7.184;2023-07-16T07:43:54;20.10;99.90
7399;DHT22;3740;50.700;7.184;2023-07-16T07:46:20;20.10;99.90
7399;DHT22;3740;50.700;7.184;2023-07-16T07:48:45;20.20;99.90
7399;DHT22;3740;50.700;7.184;2023-07-16T07:51:11;20.30;99.90
7399;DHT22;3740;50.700;7.184;2023-07-16T07:53:37;20.30;99.90
7399;DHT22;3740;50.700;7.184;2023-07-16T07:56:03;20.30;99.90
7399;DHT22;3740;50.700;7.184;2023-07-16T07:58:28;20.40;99.90
7399;DHT22;3740;50.700;7.184;2023-07-16T08:00:54;20.40;99.90
7399;DHT22;3740;50.700;7.184;2023-07-16T08:03:19;20.50;99.90
7399;DHT22;3740;50.700;7.184;2023-07-16T08:05:48;20.50;99.90
7399;DHT22;3740;50.700;7.184;2023-07-16T08:08:14;20.50;99.90
7399;DHT22;3740;50.700;7.184;2023-07-16T08:10:40;20.60;99.90
7399;DHT22;3740;50.700;7.184;2023-07-16T08:13:06;20.70;99.90
7399;DHT22;3740;50.700;7.184;2023-07-16T08:15:31;20.70;99.90
7399;DHT22;3740;50.700;7.184;2023-07-16T08:17:57;20.80;99.90
7399;DHT22;3740;50.700;7.184;2023-07-16T08:20:25;20.80;99.90
7399;DHT22;3740;50.700;7.184;2023-07-16T08:22:51;20.80;99.90
7399;DHT22;3740;50.700;7.184;2023-07-16T08:25:16;20.80;99.90
7399;DHT22;3740;50.700;7.184;2023-07-16T08:27:42;20.90;99.90
7399;DHT22;3740;50.700;7.184;2023-07-16T08:30:08;20.80;99.90
7399;DHT22;3740;50.700;7.184;2023-07-16T08:32:34;20.80;99.90
7399;DHT22;3740;50.700;7.184;2023-07-16T08:34:59;20.80;99.90
7399;DHT22;3740;50.700;7.184;2023-07-16T08:37:25;20.90;99.90
7399;DHT22;3740;50.700;7.184;2023-07-16T08:39:53;20.90;99.90
7399;DHT22;3740;50.700;7.184;2023-07-16T08:42:19;21.00;99.90
7399;DHT22;3740;50.700;7.184;2023-07-16T08:44:46;21.10;99.90
7399;DHT22;3740;50.700;7.184;2023-07-16T08:47:13;21.20;99.90
7399;DHT22;3740;50.700;7.184;2023-07-16T08:49:39;21.30;99.90
7399;DHT22;3740;50.700;7.184;2023-07-16T08:52:06;21.30;99.90
7399;DHT22;3740;50.700;7.184;2023-07-16T08:54:33;21.40;99.90
7399;DHT22;3740;50.700;7.184;2023-07-16T08:56:59;21.40;99.90
7399;DHT22;3740;50.700;7.184;2023-07-16T08:59:26;21.50;99.90
7399;DHT22;3740;50.700;7.184;2023-07-16T09:01:52;21.50;99.90
7399;DHT22;3740;50.700;7.184;2023-07-16T09:04:19;21.50;99.90
7399;DHT22;3740;50.700;7.184;2023-07-16T09:06:44;21.60;99.90
7399;DHT22;3740;50.700;7.184;2023-07-16T09:09:20;21.60;99.90
7399;DHT22;3740;50.700;7.184;2023-07-16T09:11:47;21.60;99.90
7399;DHT22;3740;50.700;7.184;2023-07-16T09:14:16;21.60;99.90
7399;DHT22;3740;50.700;7.184;2023-07-16T09:16:42;21.70;99.70
7399;DHT22;3740;50.700;7.184;2023-07-16T09:19:10;21.80;99.10
7399;DHT22;3740;50.700;7.184;2023-07-16T09:21:36;21.60;99.10
7399;DHT22;3740;50.700;7.184;2023-07-16T09:24:07;21.60;98.80
7399;DHT22;3740;50.700;7.184;2023-07-16T09:26:32;21.70;99.90
7399;DHT22;3740;50.700;7.184;2023-07-16T09:28:58;21.70;99.50
7399;DHT22;3740;50.700;7.184;2023-07-16T09:31:23;21.80;99.80
7399;DHT22;3740;50.700;7.184;2023-07-16T09:33:51;21.90;99.20
7399;DHT22;3740;50.700;7.184;2023-07-16T09:36:26;21.90;99.10
7399;DHT22;3740;50.700;7.184;2023-07-16T09:38:54;21.90;99.10
7399;DHT22;3740;50.700;7.184;2023-07-16T09:41:21;22.00;98.90
7399;DHT22;3740;50.700;7.184;2023-07-16T09:43:47;22.10;99.10
7399;DHT22;3740;50.700;7.184;2023-07-16T09:46:12;22.10;98.20
7399;DHT22;3740;50.700;7.184;2023-07-16T09:48:38;22.10;98.30
7399;DHT22;3740;50.700;7.184;2023-07-16T09:51:04;22.20;98.90
7399;DHT22;3740;50.700;7.184;2023-07-16T09:53:33;22.30;98.40
7399;DHT22;3740;50.700;7.184;2023-07-16T09:56:00;22.30;97.20
7399;DHT22;3740;50.700;7.184;2023-07-16T09:58:27;22.30;98.60
7399;DHT22;3740;50.700;7.184;2023-07-16T10:00:53;22.30;99.10
7399;DHT22;3740;50.700;7.184;2023-07-16T10:03:19;22.40;98.30
7399;DHT22;3740;50.700;7.184;2023-07-16T10:05:45;22.40;98.50
7399;DHT22;3740;50.700;7.184;2023-07-16T10:08:18;22.50;97.00
7399;DHT22;3740;50.700;7.184;2023-07-16T10:10:52;22.50;96.90
7399;DHT22;3740;50.700;7.184;2023-07-16T10:13:22;22.50;96.10
7399;DHT22;3740;50.700;7.184;2023-07-16T10:18:31;22.80;97.20
7399;DHT22;3740;50.700;7.184;2023-07-16T10:21:06;22.90;96.00
7399;DHT22;3740;50.700;7.184;2023-07-16T10:23:43;23.00;94.60
7399;DHT22;3740;50.700;7.184;2023-07-16T10:26:14;23.10;95.40
7399;DHT22;3740;50.700;7.184;2023-07-16T10:28:40;23.10;95.10
7399;DHT22;3740;50.700;7.184;2023-07-16T10:31:17;23.10;93.90
7399;DHT22;3740;50.700;7.184;2023-07-16T10:33:43;23.20;94.40
7399;DHT22;3740;50.700;7.184;2023-07-16T10:36:08;23.30;93.70
7399;DHT22;3740;50.700;7.184;2023-07-16T10:38:41;23.40;93.50
7399;DHT22;3740;50.700;7.184;2023-07-16T10:41:07;23.40;93.40
7399;DHT22;3740;50.700;7.184;2023-07-16T10:43:33;23.50;92.90
7399;DHT22;3740;50.700;7.184;2023-07-16T10:45:58;23.50;93.10
7399;DHT22;3740;50.700;7.184;2023-07-16T10:48:25;23.70;93.10
7399;DHT22;3740;50.700;7.184;2023-07-16T10:50:53;23.80;92.90
7399;DHT22;3740;50.700;7.184;2023-07-16T10:53:19;23.90;91.50
7399;DHT22;3740;50.700;7.184;2023-07-16T10:55:45;23.90;91.00
7399;DHT22;3740;50.700;7.184;2023-07-16T10:58:10;24.00;90.90
7399;DHT22;3740;50.700;7.184;2023-07-16T11:00:38;24.30;91.40
7399;DHT22;3740;50.700;7.184;2023-07-16T11:03:04;24.50;91.10
7399;DHT22;3740;50.700;7.184;2023-07-16T11:05:30;24.80;90.00
7399;DHT22;3740;50.700;7.184;2023-07-16T11:07:55;25.70;87.30
7399;DHT22;3740;50.700;7.184;2023-07-16T11:10:22;27.30;79.70
7399;DHT22;3740;50.700;7.184;2023-07-16T11:12:52;28.30;73.40
7399;DHT22;3740;50.700;7.184;2023-07-16T11:15:18;28.50;70.80
7399;DHT22;3740;50.700;7.184;2023-07-16T11:17:48;28.30;71.20
7399;DHT22;3740;50.700;7.184;2023-07-16T11:20:15;29.60;70.80
7399;DHT22;3740;50.700;7.184;2023-07-16T11:22:41;30.50;63.20
7399;DHT22;3740;50.700;7.184;2023-07-16T11:25:15;31.60;58.90
7399;DHT22;3740;50.700;7.184;2023-07-16T11:27:42;31.80;56.80
7399;DHT22;3740;50.700;7.184;2023-07-16T11:30:08;31.00;56.90
7399;DHT22;3740;50.700;7.184;2023-07-16T11:35:05;30.10;60.00
7399;DHT22;3740;50.700;7.184;2023-07-16T11:37:32;30.30;58.70
7399;DHT22;3740;50.700;7.184;2023-07-16T11:40:06;30.90;57.90
7399;DHT22;3740;50.700;7.184;2023-07-16T11:42:34;32.10;54.30
7399;DHT22;3740;50.700;7.184;2023-07-16T11:45:00;32.10;53.60
7399;DHT22;3740;50.700;7.184;2023-07-16T11:47:26;31.50;53.10
7399;DHT22;3740;50.700;7.184;2023-07-16T11:49:52;31.30;54.00
7399;DHT22;3740;50.700;7.184;2023-07-16T11:52:29;31.20;54.00
7399;DHT22;3740;50.700;7.184;2023-07-16T11:54:57;29.80;54.90
7399;DHT22;3740;50.700;7.184;2023-07-16T11:57:25;29.40;56.00
7399;DHT22;3740;50.700;7.184;2023-07-16T11:59:50;29.60;55.90
7399;DHT22;3740;50.700;7.184;2023-07-16T12:02:16;29.10;55.40
7399;DHT22;3740;50.700;7.184;2023-07-16T12:04:42;29.30;56.60
7399;DHT22;3740;50.700;7.184;2023-07-16T12:07:07;29.80;54.80
7399;DHT22;3740;50.700;7.184;2023-07-16T12:09:33;29.50;55.60
7399;DHT22;3740;50.700;7.184;2023-07-16T12:11:59;29.10;57.10
7399;DHT22;3740;50.700;7.184;2023-07-16T12:14:25;29.30;55.90
7399;DHT22;3740;50.700;7.184;2023-07-16T12:16:51;29.60;55.70
7399;DHT22;3740;50.700;7.184;2023-07-16T12:19:16;29.30;55.10
7399;DHT22;3740;50.700;7.184;2023-07-16T12:21:42;28.70;56.00
7399;DHT22;3740;50.700;7.184;2023-07-16T12:24:07;28.00;57.00
7399;DHT22;3740;50.700;7.184;2023-07-16T12:26:33;28.40;57.60
7399;DHT22;3740;50.700;7.184;2023-07-16T12:29:00;28.20;57.10
7399;DHT22;3740;50.700;7.184;2023-07-16T12:31:28;28.10;58.30
7399;DHT22;3740;50.700;7.184;2023-07-16T12:33:53;28.10;56.10
7399;DHT22;3740;50.700;7.184;2023-07-16T12:36:19;27.40;56.50
7399;DHT22;3740;50.700;7.184;2023-07-16T12:38:45;27.10;58.80
7399;DHT22;3740;50.700;7.184;2023-07-16T12:41:10;27.40;58.40
7399;DHT22;3740;50.700;7.184;2023-07-16T12:43:36;27.50;57.80
7399;DHT22;3740;50.700;7.184;2023-07-16T12:46:01;27.20;58.10
7399;DHT22;3740;50.700;7.184;2023-07-16T12:48:31;27.30;58.50
7399;DHT22;3740;50.700;7.184;2023-07-16T12:50:56;28.20;57.70
7399;DHT22;3740;50.700;7.184;2023-07-16T12:53:22;28.60;57.00
7399;DHT22;3740;50.700;7.184;2023-07-16T12:55:48;28.80;56.30
7399;DHT22;3740;50.700;7.184;2023-07-16T12:58:14;29.70;56.80
7399;DHT22;3740;50.700;7.184;2023-07-16T13:00:39;30.30;53.80
7399;DHT22;3740;50.700;7.184;2023-07-16T13:03:05;30.20;54.00
7399;DHT22;3740;50.700;7.184;2023-07-16T13:05:30;29.30;53.60
7399;DHT22;3740;50.700;7.184;2023-07-16T13:07:56;28.20;54.40
7399;DHT22;3740;50.700;7.184;2023-07-16T13:10:22;27.70;55.90
7399;DHT22;3740;50.700;7.184;2023-07-16T13:12:48;27.70;56.80
7399;DHT22;3740;50.700;7.184;2023-07-16T13:15:14;28.10;57.40
7399;DHT22;3740;50.700;7.184;2023-07-16T13:17:39;28.50;56.00
7399;DHT22;3740;50.700;7.184;2023-07-16T13:20:05;28.50;55.30
7399;DHT22;3740;50.700;7.184;2023-07-16T13:22:32;28.70;56.80
7399;DHT22;3740;50.700;7.184;2023-07-16T13:24:57;28.60;55.70
7399;DHT22;3740;50.700;7.184;2023-07-16T13:27:24;27.90;55.60
7399;DHT22;3740;50.700;7.184;2023-07-16T13:29:49;27.50;57.20
7399;DHT22;3740;50.700;7.184;2023-07-16T13:32:16;27.40;57.70
7399;DHT22;3740;50.700;7.184;2023-07-16T13:34:42;27.10;57.30
7399;DHT22;3740;50.700;7.184;2023-07-16T13:37:07;27.60;58.10
7399;DHT22;3740;50.700;7.184;2023-07-16T13:39:33;27.40;56.40
7399;DHT22;3740;50.700;7.184;2023-07-16T13:41:58;27.20;56.40
7399;DHT22;3740;50.700;7.184;2023-07-16T13:44:24;26.90;57.00
7399;DHT22;3740;50.700;7.184;2023-07-16T13:46:49;26.50;57.50
7399;DHT22;3740;50.700;7.184;2023-07-16T13:49:15;26.30;58.20
7399;DHT22;3740;50.700;7.184;2023-07-16T13:51:40;26.10;60.10
7399;DHT22;3740;50.700;7.184;2023-07-16T13:54:06;26.40;59.70
7399;DHT22;3740;50.700;7.184;2023-07-16T13:56:32;26.40;57.70
7399;DHT22;3740;50.700;7.184;2023-07-16T13:58:57;26.40;59.30
7399;DHT22;3740;50.700;7.184;2023-07-16T14:01:24;26.10;59.70
7399;DHT22;3740;50.700;7.184;2023-07-16T14:03:49;26.00;61.10
7399;DHT22;3740;50.700;7.184;2023-07-16T14:06:15;25.80;59.80
7399;DHT22;3740;50.700;7.184;2023-07-16T14:08:40;25.90;61.70
7399;DHT22;3740;50.700;7.184;2023-07-16T14:11:06;26.40;59.70
7399;DHT22;3740;50.700;7.184;2023-07-16T14:13:31;27.20;58.20
7399;DHT22;3740;50.700;7.184;2023-07-16T14:15:57;27.70;57.20
7399;DHT22;3740;50.700;7.184;2023-07-16T14:18:22;27.40;57.50
7399;DHT22;3740;50.700;7.184;2023-07-16T14:20:49;27.60;57.50
7399;DHT22;3740;50.700;7.184;2023-07-16T14:23:14;27.70;56.30
7399;DHT22;3740;50.700;7.184;2023-07-16T14:25:40;27.40;55.90
7399;DHT22;3740;50.700;7.184;2023-07-16T14:28:06;27.00;57.00
7399;DHT22;3740;50.700;7.184;2023-07-16T14:30:31;26.90;57.80
7399;DHT22;3740;50.700;7.184;2023-07-16T14:32:57;26.90;58.60
7399;DHT22;3740;50.700;7.184;2023-07-16T14:35:24;26.90;58.10
7399;DHT22;3740;50.700;7.184;2023-07-16T14:37:50;26.70;59.20
7399;DHT22;3740;50.700;7.184;2023-07-16T14:40:15;26.50;58.40
7399;DHT22;3740;50.700;7.184;2023-07-16T14:42:41;26.40;58.50
7399;DHT22;3740;50.700;7.184;2023-07-16T14:45:08;26.30;59.00
7399;DHT22;3740;50.700;7.184;2023-07-16T14:47:34;26.20;59.50
7399;DHT22;3740;50.700;7.184;2023-07-16T14:50:00;26.20;60.50
7399;DHT22;3740;50.700;7.184;2023-07-16T14:52:25;26.30;59.40
7399;DHT22;3740;50.700;7.184;2023-07-16T14:54:51;26.00;59.80
7399;DHT22;3740;50.700;7.184;2023-07-16T14:57:16;26.10;61.90
7399;DHT22;3740;50.700;7.184;2023-07-16T14:59:42;26.10;61.20
7399;DHT22;3740;50.700;7.184;2023-07-16T15:02:08;26.10;60.90
7399;DHT22;3740;50.700;7.184;2023-07-16T15:04:34;26.00;62.50
7399;DHT22;3740;50.700;7.184;2023-07-16T15:06:59;25.90;61.90
7399;DHT22;3740;50.700;7.184;2023-07-16T15:09:25;25.90;62.50
7399;DHT22;3740;50.700;7.184;2023-07-16T15:11:51;25.90;60.50
7399;DHT22;3740;50.700;7.184;2023-07-16T15:14:16;25.80;62.50
7399;DHT22;3740;50.700;7.184;2023-07-16T15:16:42;25.90;61.60
7399;DHT22;3740;50.700;7.184;2023-07-16T15:19:07;25.80;63.00
7399;DHT22;3740;50.700;7.184;2023-07-16T15:21:34;25.90;62.20
7399;DHT22;3740;50.700;7.184;2023-07-16T15:24:04;25.90;62.30
7399;DHT22;3740;50.700;7.184;2023-07-16T15:26:29;25.90;62.90
7399;DHT22;3740;50.700;7.184;2023-07-16T15:28:55;25.80;62.20
7399;DHT22;3740;50.700;7.184;2023-07-16T15:31:21;25.70;63.10
7399;DHT22;3740;50.700;7.184;2023-07-16T15:33:53;25.70;62.70
7399;DHT22;3740;50.700;7.184;2023-07-16T15:36:18;25.60;63.50
7399;DHT22;3740;50.700;7.184;2023-07-16T15:38:44;25.30;64.90
7399;DHT22;3740;50.700;7.184;2023-07-16T15:41:10;25.70;65.00
7399;DHT22;3740;50.700;7.184;2023-07-16T15:43:37;25.70;64.50
7399;DHT22;3740;50.700;7.184;2023-07-16T15:46:03;25.80;63.50
7399;DHT22;3740;50.700;7.184;2023-07-16T15:48:28;25.70;63.30
7399;DHT22;3740;50.700;7.184;2023-07-16T15:50:57;25.80;62.80
7399;DHT22;3740;50.700;7.184;2023-07-16T15:53:23;25.80;63.40
7399;DHT22;3740;50.700;7.184;2023-07-16T15:55:49;25.70;63.00
7399;DHT22;3740;50.700;7.184;2023-07-16T15:58:14;25.70;63.20
7399;DHT22;3740;50.700;7.184;2023-07-16T16:00:40;25.60;63.20
7399;DHT22;3740;50.700;7.184;2023-07-16T16:03:06;25.60;64.10
7399;DHT22;3740;50.700;7.184;2023-07-16T16:05:31;25.60;64.30